sensor_id;sensor_type;location;lat;lon;timestamp;temperature;humidity
38550;DHT22;24322;52.004;5.948;2022-07-23T00:00:32;15.30;99.90
38550;DHT22;24322;52.004;5.948;2022-07-23T00:02:57;15.30;99.90
38550;DHT22;24322;52.004;5.948;2022-07-23T00:05:23;15.20;99.90
38550;DHT22;24322;52.004;5.948;2022-07-23T00:07:49;15.10;99.90
38550;DHT22;24322;52.004;5.948;2022-07-23T00:10:14;15.00;99.90
38550;DHT22;24322;52.004;5.948;2022-07-23T00:12:40;15.00;99.90
38550;DHT22;24322;52.004;5.948;2022-07-23T00:15:07;15.00;99.90
38550;DHT22;24322;52.004;5.948;2022-07-23T00:17:33;14.90;99.90
38550;DHT22;24322;52.004;5.948;2022-07-23T00:19:59;14.90;99.90
38550;DHT22;24322;52.004;5.948;2022-07-23T00:22:25;14.80;99.90
38550;DHT22;24322;52.004;5.948;2022-07-23T00:24:50;14.80;99.90
38550;DHT22;24322;52.004;5.948;2022-07-23T00:27:16;14.80;99.90
38550;DHT22;24322;52.004;5.948;2022-07-23T00:29:41;14.80;99.90
38550;DHT22;24322;52.004;5.948;2022-07-23T00:32:07;14.80;99.90
38550;DHT22;24322;52.004;5.948;2022-07-23T00:34:33;14.80;99.90
38550;DHT22;24322;52.004;5.948;2022-07-23T00:36:58;14.70;99.90
38550;DHT22;24322;52.004;5.948;2022-07-23T00:39:24;14.70;99.90
38550;DHT22;24322;52.004;5.948;2022-07-23T00:41:50;14.70;99.90
38550;DHT22;24322;52.004;5.948;2022-07-23T00:44:24;14.60;99.90
38550;DHT22;24322;52.004;5.948;2022-07-23T00:46:53;14.70;99.90
38550;DHT22;24322;52.004;5.948;2022-07-23T00:49:21;14.60;99.90
38550;DHT22;24322;52.004;5.948;2022-07-23T00:51:48;14.60;99.90
38550;DHT22;24322;52.004;5.948;2022-07-23T00:54:15;14.70;99.90
38550;DHT22;24322;52.004;5.948;2022-07-23T00:56:43;14.70;99.90
38550;DHT22;24322;52.004;5.948;2022-07-23T00:59:09;14.70;99.90
38550;DHT22;24322;52.004;5.948;2022-07-23T01:01:35;14.70;99.90
38550;DHT22;24322;52.004;5.948;2022-07-23T01:04:00;14.70;99.90
38550;DHT22;24322;52.004;5.948;2022-07-23T01:06:26;14.70;99.90
38550;DHT22;24322;52.004;5.948;2022-07-23T01:08:53;14.60;99.90
38550;DHT22;24322;52.004;5.948;2022-07-23T01:11:20;14.70;99.90
38550;DHT22;24322;52.004;5.948;2022-07-23T01:13:46;14.70;99.90
38550;DHT22;24322;52.004;5.948;2022-07-23T01:16:12;14.70;99.90
38550;DHT22;24322;52.004;5.948;2022-07-23T01:18:38;14.70;99.90
38550;DHT22;24322;52.004;5.948;2022-07-23T01:21:04;14.70;99.90
38550;DHT22;24322;52.004;5.948;2022-07-23T01:23:29;14.60;99.90
38550;DHT22;24322;52.004;5.948;2022-07-23T01:25:55;14.60;99.90
38550;DHT22;24322;52.004;5.948;2022-07-23T01:28:21;14.60;99.90
38550;DHT22;24322;52.004;5.948;2022-07-23T01:30:47;14.60;99.90
38550;DHT22;24322;52.004;5.948;2022-07-23T01:33:13;14.60;99.90
38550;DHT22;24322;52.004;5.948;2022-07-23T01:35:39;14.60;99.90
38550;DHT22;24322;52.004;5.948;2022-07-23T01:38:05;14.60;99.90
38550;DHT22;24322;52.004;5.948;2022-07-23T01:40:30;14.60;99.90
38550;DHT22;24322;52.004;5.948;2022-07-23T01:42:56;14.60;99.90
38550;DHT22;24322;52.004;5.948;2022-07-23T01:45:22;14.60;99.90
38550;DHT22;24322;52.004;5.948;2022-07-23T01:47:48;14.60;99.90
38550;DHT22;24322;52.004;5.948;2022-07-23T01:50:13;14.50;99.90
38550;DHT22;24322;52.004;5.948;2022-07-23T01:52:39;14.50;99.90
38550;DHT22;24322;52.004;5.948;2022-07-23T01:55:05;14.50;99.90
38550;DHT22;24322;52.004;5.948;2022-07-23T01:57:31;14.50;99.90
38550;DHT22;24322;52.004;5.948;2022-07-23T01:59:57;14.50;99.90
38550;DHT22;24322;52.004;5.948;2022-07-23T02:02:22;14.50;99.90
38550;DHT22;24322;52.004;5.948;2022-07-23T02:04:48;14.40;99.90
38550;DHT22;24322;52.004;5.948;2022-07-23T02:07:14;14.40;99.90
38550;DHT22;24322;52.004;5.948;2022-07-23T02:09:39;14.40;99.90
38550;DHT22;24322;52.004;5.948;2022-07-23T02:12:05;14.30;99.90
38550;DHT22;24322;52.004;5.948;2022-07-23T02:14:31;14.30;99.90
38550;DHT22;24322;52.004;5.948;2022-07-23T02:16:56;14.30;99.90
38550;DHT22;24322;52.004;5.948;2022-07-23T02:19:22;14.20;99.90
38550;DHT22;24322;52.004;5.948;2022-07-23T02:21:48;14.20;99.90
38550;DHT22;24322;52.004;5.948;2022-07-23T02:24:14;14.20;99.90
38550;DHT22;24322;52.004;5.948;2022-07-23T02:26:39;14.10;99.90
38550;DHT22;24322;52.004;5.948;2022-07-23T02:29:05;14.00;99.90
38550;DHT22;24322;52.004;5.948;2022-07-23T02:31:31;13.90;99.90
38550;DHT22;24322;52.004;5.948;2022-07-23T02:33:57;13.90;99.90
38550;DHT22;24322;52.004;5.948;2022-07-23T02:36:23;13.90;99.90
38550;DHT22;24322;52.004;5.948;2022-07-23T02:38:49;13.80;99.90
38550;DHT22;24322;52.004;5.948;2022-07-23T02:41:15;13.80;99.90
38550;DHT22;24322;52.004;5.948;2022-07-23T02:43:40;13.80;99.90
38550;DHT22;24322;52.004;5.948;2022-07-23T02:46:06;13.80;99.90
38550;DHT22;24322;52.004;5.948;2022-07-23T02:48:32;13.80;99.90
38550;DHT22;24322;52.004;5.948;2022-07-23T02:50:57;13.70;99.90
38550;DHT22;24322;52.004;5.948;2022-07-23T02:53:23;13.70;99.90
38550;DHT22;24322;52.004;5.948;2022-07-23T02:55:49;13.60;99.90
38550;DHT22;24322;52.004;5.948;2022-07-23T02:58:14;13.60;99.90
38550;DHT22;24322;52.004;5.948;2022-07-23T03:00:40;13.60;99.90
38550;DHT22;24322;52.004;5.948;2022-07-23T03:03:06;13.60;99.90
38550;DHT22;24322;52.004;5.948;2022-07-23T03:05:33;13.50;99.90
38550;DHT22;24322;52.004;5.948;2022-07-23T03:07:59;13.50;99.90
38550;DHT22;24322;52.004;5.948;2022-07-23T03:10:24;13.50;99.90
38550;DHT22;24322;52.004;5.948;2022-07-23T03:12:50;13.50;99.90
38550;DHT22;24322;52.004;5.948;2022-07-23T03:15:16;13.50;99.90
38550;DHT22;24322;52.004;5.948;2022-07-23T03:17:41;13.40;99.90
38550;DHT22;24322;52.004;5.948;2022-07-23T03:20:08;13.40;99.90
38550;DHT22;24322;52.004;5.948;2022-07-23T03:22:33;13.40;99.90
38550;DHT22;24322;52.004;5.948;2022-07-23T03:24:59;13.30;99.90
38550;DHT22;24322;52.004;5.948;2022-07-23T03:27:27;13.30;99.90
38550;DHT22;24322;52.004;5.948;2022-07-23T03:29:54;13.30;99.90
38550;DHT22;24322;52.004;5.948;2022-07-23T03:32:21;13.20;99.90
38550;DHT22;24322;52.004;5.948;2022-07-23T03:34:47;13.20;99.90
38550;DHT22;24322;52.004;5.948;2022-07-23T03:37:13;13.20;99.90
38550;DHT22;24322;52.004;5.948;2022-07-23T03:39:39;13.10;99.90
38550;DHT22;24322;52.004;5.948;2022-07-23T03:42:04;13.10;99.90
38550;DHT22;24322;52.004;5.948;2022-07-23T03:44:30;13.10;99.90
38550;DHT22;24322;52.004;5.948;2022-07-23T03:46:56;13.00;99.90
38550;DHT22;24322;52.004;5.948;2022-07-23T03:49:21;13.10;99.90
38550;DHT22;24322;52.004;5.948;2022-07-23T03:51:47;13.10;99.90
38550;DHT22;24322;52.004;5.948;2022-07-23T03:54:13;13.00;99.90
38550;DHT22;24322;52.004;5.948;2022-07-23T03:56:39;13.00;99.90
38550;DHT22;24322;52.004;5.948;2022-07-23T03:59:04;13.00;99.90
38550;DHT22;24322;52.004;5.948;2022-07-23T04:01:30;13.00;99.90
38550;DHT22;24322;52.004;5.948;2022-07-23T04:03:56;13.00;99.90
38550;DHT22;24322;52.004;5.948;2022-07-23T04:06:21;13.00;99.90
38550;DHT22;24322;52.004;5.948;2022-07-23T04:08:47;13.00;99.90
38550;DHT22;24322;52.004;5.948;2022-07-23T04:11:13;13.00;99.90
38550;DHT22;24322;52.004;5.948;2022-07-23T04:13:38;13.00;99.90
38550;DHT22;24322;52.004;5.948;2022-07-23T04:16:04;13.10;99.90
38550;DHT22;24322;52.004;5.948;2022-07-23T04:18:30;13.10;99.90
38550;DHT22;24322;52.004;5.948;2022-07-23T04:20:56;13.10;99.90
38550;DHT22;24322;52.004;5.948;2022-07-23T04:23:21;13.10;99.90
38550;DHT22;24322;52.004;5.948;2022-07-23T04:25:47;13.10;99.90
38550;DHT22;24322;52.004;5.948;2022-07-23T04:28:13;13.10;99.90
38550;DHT22;24322;52.004;5.948;2022-07-23T04:30:38;13.10;99.90
38550;DHT22;24322;52.004;5.948;2022-07-23T04:33:04;13.10;99.90
38550;DHT22;24322;52.004;5.948;2022-07-23T04:35:33;13.10;99.90
38550;DHT22;24322;52.004;5.948;2022-07-23T04:37:59;13.10;99.90
38550;DHT22;24322;52.004;5.948;2022-07-23T04:40:25;13.10;99.90
38550;DHT22;24322;52.004;5.948;2022-07-23T04:42:51;13.20;99.90
38550;DHT22;24322;52.004;5.948;2022-07-23T04:45:17;13.20;99.90
38550;DHT22;24322;52.004;5.948;2022-07-23T04:47:42;13.30;99.90
38550;DHT22;24322;52.004;5.948;2022-07-23T04:50:08;13.30;99.90
38550;DHT22;24322;52.004;5.948;2022-07-23T04:52:34;13.40;99.90
38550;DHT22;24322;52.004;5.948;2022-07-23T04:55:00;13.40;99.90
38550;DHT22;24322;52.004;5.948;2022-07-23T04:57:25;13.40;99.90
38550;DHT22;24322;52.004;5.948;2022-07-23T04:59:51;13.50;99.90
38550;DHT22;24322;52.004;5.948;2022-07-23T05:02:16;13.50;99.90
38550;DHT22;24322;52.004;5.948;2022-07-23T05:04:42;13.50;99.90
38550;DHT22;24322;52.004;5.948;2022-07-23T05:07:08;13.60;99.90
38550;DHT22;24322;52.004;5.948;2022-07-23T05:09:33;13.60;99.90
38550;DHT22;24322;52.004;5.948;2022-07-23T05:11:59;13.70;99.90
38550;DHT22;24322;52.004;5.948;2022-07-23T05:14:25;13.70;99.90
38550;DHT22;24322;52.004;5.948;2022-07-23T05:16:51;13.80;99.90
38550;DHT22;24322;52.004;5.948;2022-07-23T05:19:16;13.80;99.90
38550;DHT22;24322;52.004;5.948;2022-07-23T05:21:42;13.90;99.90
38550;DHT22;24322;52.004;5.948;2022-07-23T05:24:07;13.90;99.90
38550;DHT22;24322;52.004;5.948;2022-07-23T05:26:33;14.00;99.90
38550;DHT22;24322;52.004;5.948;2022-07-23T05:28:58;14.00;99.90
38550;DHT22;24322;52.004;5.948;2022-07-23T05:31:24;14.10;99.90
38550;DHT22;24322;52.004;5.948;2022-07-23T05:33:50;14.10;99.90
38550;DHT22;24322;52.004;5.948;2022-07-23T05:36:15;14.10;99.90
38550;DHT22;24322;52.004;5.948;2022-07-23T05:38:41;14.30;99.90
38550;DHT22;24322;52.004;5.948;2022-07-23T05:41:07;14.30;99.90
38550;DHT22;24322;52.004;5.948;2022-07-23T05:43:32;14.40;99.90
38550;DHT22;24322;52.004;5.948;2022-07-23T05:45:58;14.50;99.90
38550;DHT22;24322;52.004;5.948;2022-07-23T05:48:24;14.60;99.90
38550;DHT22;24322;52.004;5.948;2022-07-23T05:50:49;14.70;99.90
38550;DHT22;24322;52.004;5.948;2022-07-23T05:53:15;14.80;99.90
38550;DHT22;24322;52.004;5.948;2022-07-23T05:55:40;14.90;99.90
38550;DHT22;24322;52.004;5.948;2022-07-23T05:58:06;15.00;99.90
38550;DHT22;24322;52.004;5.948;2022-07-23T06:00:32;15.10;99.90
38550;DHT22;24322;52.004;5.948;2022-07-23T06:02:58;15.30;99.90
38550;DHT22;24322;52.004;5.948;2022-07-23T06:05:24;15.40;99.90
38550;DHT22;24322;52.004;5.948;2022-07-23T06:07:50;15.60;99.90
38550;DHT22;24322;52.004;5.948;2022-07-23T06:10:16;15.60;99.90
38550;DHT22;24322;52.004;5.948;2022-07-23T06:12:42;15.80;99.90
38550;DHT22;24322;52.004;5.948;2022-07-23T06:15:08;15.90;99.90
38550;DHT22;24322;52.004;5.948;2022-07-23T06:17:34;16.10;99.90
38550;DHT22;24322;52.004;5.948;2022-07-23T06:20:00;16.20;99.90
38550;DHT22;24322;52.004;5.948;2022-07-23T06:22:25;16.30;99.90
38550;DHT22;24322;52.004;5.948;2022-07-23T06:24:51;16.40;99.90
38550;DHT22;24322;52.004;5.948;2022-07-23T06:27:17;16.60;99.90
38550;DHT22;24322;52.004;5.948;2022-07-23T06:29:43;16.70;99.90
38550;DHT22;24322;52.004;5.948;2022-07-23T06:32:08;16.80;99.90
38550;DHT22;24322;52.004;5.948;2022-07-23T06:34:34;16.80;99.90
38550;DHT22;24322;52.004;5.948;2022-07-23T06:37:00;16.90;99.90
38550;DHT22;24322;52.004;5.948;2022-07-23T06:39:26;17.10;99.90
38550;DHT22;24322;52.004;5.948;2022-07-23T06:41:53;17.20;99.90
38550;DHT22;24322;52.004;5.948;2022-07-23T06:44:18;17.30;99.90
38550;DHT22;24322;52.004;5.948;2022-07-23T06:46:44;17.30;99.90
38550;DHT22;24322;52.004;5.948;2022-07-23T06:49:10;17.30;99.90
38550;DHT22;24322;52.004;5.948;2022-07-23T06:51:36;17.50;99.90
38550;DHT22;24322;52.004;5.948;2022-07-23T06:54:02;17.60;99.90
38550;DHT22;24322;52.004;5.948;2022-07-23T06:56:27;17.70;99.90
38550;DHT22;24322;52.004;5.948;2022-07-23T06:58:53;17.70;99.90
38550;DHT22;24322;52.004;5.948;2022-07-23T07:01:19;17.70;99.90
38550;DHT22;24322;52.004;5.948;2022-07-23T07:03:44;17.80;99.90
38550;DHT22;24322;52.004;5.948;2022-07-23T07:06:10;17.80;99.90
38550;DHT22;24322;52.004;5.948;2022-07-23T07:08:36;17.80;99.90
38550;DHT22;24322;52.004;5.948;2022-07-23T07:11:02;17.90;99.90
38550;DHT22;24322;52.004;5.948;2022-07-23T07:13:28;18.00;99.90
38550;DHT22;24322;52.004;5.948;2022-07-23T07:15:53;18.00;99.90
38550;DHT22;24322;52.004;5.948;2022-07-23T07:18:19;18.00;99.90
38550;DHT22;24322;52.004;5.948;2022-07-23T07:20:45;18.10;99.90
38550;DHT22;24322;52.004;5.948;2022-07-23T07:23:11;18.20;99.90
38550;DHT22;24322;52.004;5.948;2022-07-23T07:25:37;18.30;99.90
38550;DHT22;24322;52.004;5.948;2022-07-23T07:28:03;18.40;99.90
38550;DHT22;24322;52.004;5.948;2022-07-23T07:30:28;18.60;99.90
38550;DHT22;24322;52.004;5.948;2022-07-23T07:32:54;18.70;99.90
38550;DHT22;24322;52.004;5.948;2022-07-23T07:35:20;18.80;99.90
38550;DHT22;24322;52.004;5.948;2022-07-23T07:37:45;18.90;99.90
38550;DHT22;24322;52.004;5.948;2022-07-23T07:40:11;19.00;99.90
38550;DHT22;24322;52.004;5.948;2022-07-23T07:42:50;19.00;99.90
38550;DHT22;24322;52.004;5.948;2022-07-23T07:45:16;19.20;99.90
38550;DHT22;24322;52.004;5.948;2022-07-23T07:47:42;19.30;99.90
38550;DHT22;24322;52.004;5.948;2022-07-23T07:50:09;19.30;99.90
38550;DHT22;24322;52.004;5.948;2022-07-23T07:52:35;19.50;99.90
38550;DHT22;24322;52.004;5.948;2022-07-23T07:55:04;19.60;99.90
38550;DHT22;24322;52.004;5.948;2022-07-23T07:57:30;19.80;99.90
38550;DHT22;24322;52.004;5.948;2022-07-23T07:59:56;20.00;99.90
38550;DHT22;24322;52.004;5.948;2022-07-23T08:02:21;20.40;99.90
38550;DHT22;24322;52.004;5.948;2022-07-23T08:04:47;20.80;99.90
38550;DHT22;24322;52.004;5.948;2022-07-23T08:07:14;21.30;98.90
38550;DHT22;24322;52.004;5.948;2022-07-23T08:09:40;21.40;99.20
38550;DHT22;24322;52.004;5.948;2022-07-23T08:12:05;21.60;98.60
38550;DHT22;24322;52.004;5.948;2022-07-23T08:14:31;21.90;99.80
38550;DHT22;24322;52.004;5.948;2022-07-23T08:16:57;22.40;97.90
38550;DHT22;24322;52.004;5.948;2022-07-23T08:19:22;23.10;96.60
38550;DHT22;24322;52.004;5.948;2022-07-23T08:21:48;24.00;95.20
38550;DHT22;24322;52.004;5.948;2022-07-23T08:24:14;24.90;92.60
38550;DHT22;24322;52.004;5.948;2022-07-23T08:26:39;25.50;90.40
38550;DHT22;24322;52.004;5.948;2022-07-23T08:29:06;25.80;87.90
38550;DHT22;24322;52.004;5.948;2022-07-23T08:31:31;26.00;84.10
38550;DHT22;24322;52.004;5.948;2022-07-23T08:33:59;26.40;84.80
38550;DHT22;24322;52.004;5.948;2022-07-23T08:36:24;26.70;80.00
38550;DHT22;24322;52.004;5.948;2022-07-23T08:38:53;27.10;79.40
38550;DHT22;24322;52.004;5.948;2022-07-23T08:41:19;27.30;80.70
38550;DHT22;24322;52.004;5.948;2022-07-23T08:43:45;27.80;79.30
38550;DHT22;24322;52.004;5.948;2022-07-23T08:46:10;28.20;75.30
38550;DHT22;24322;52.004;5.948;2022-07-23T08:48:37;28.70;75.50
38550;DHT22;24322;52.004;5.948;2022-07-23T08:51:05;29.00;69.00
38550;DHT22;24322;52.004;5.948;2022-07-23T08:53:32;28.90;68.80
38550;DHT22;24322;52.004;5.948;2022-07-23T08:56:00;29.30;68.00
38550;DHT22;24322;52.004;5.948;2022-07-23T08:58:27;29.80;66.20
38550;DHT22;24322;52.004;5.948;2022-07-23T09:00:53;30.10;62.90
38550;DHT22;24322;52.004;5.948;2022-07-23T09:03:21;30.00;61.50
38550;DHT22;24322;52.004;5.948;2022-07-23T09:05:47;29.90;60.60
38550;DHT22;24322;52.004;5.948;2022-07-23T09:08:16;29.90;59.70
38550;DHT22;24322;52.004;5.948;2022-07-23T09:10:55;30.30;59.70
38550;DHT22;24322;52.004;5.948;2022-07-23T09:13:30;30.20;60.50
38550;DHT22;24322;52.004;5.948;2022-07-23T09:15:59;30.30;59.40
38550;DHT22;24322;52.004;5.948;2022-07-23T09:18:38;30.10;57.90
38550;DHT22;24322;52.004;5.948;2022-07-23T09:31:17;30.60;54.80
38550;DHT22;24322;52.004;5.948;2022-07-23T09:33:42;31.10;52.10
38550;DHT22;24322;52.004;5.948;2022-07-23T09:36:08;31.40;52.90
38550;DHT22;24322;52.004;5.948;2022-07-23T09:38:35;31.10;53.50
38550;DHT22;24322;52.004;5.948;2022-07-23T09:41:12;31.30;53.40
38550;DHT22;24322;52.004;5.948;2022-07-23T09:43:39;31.50;50.60
38550;DHT22;24322;52.004;5.948;2022-07-23T09:46:18;31.70;49.60
38550;DHT22;24322;52.004;5.948;2022-07-23T09:48:45;31.30;50.20
38550;DHT22;24322;52.004;5.948;2022-07-23T09:51:11;31.00;52.70
38550;DHT22;24322;52.004;5.948;2022-07-23T09:53:37;31.20;52.70
38550;DHT22;24322;52.004;5.948;2022-07-23T09:56:03;31.50;52.50
38550;DHT22;24322;52.004;5.948;2022-07-23T09:58:30;31.60;51.50
38550;DHT22;24322;52.004;5.948;2022-07-23T10:00:57;31.70;50.80
38550;DHT22;24322;52.004;5.948;2022-07-23T10:03:23;32.00;49.10
38550;DHT22;24322;52.004;5.948;2022-07-23T10:05:50;32.00;48.70
38550;DHT22;24322;52.004;5.948;2022-07-23T10:08:18;32.00;49.70
38550;DHT22;24322;52.004;5.948;2022-07-23T10:10:46;32.20;50.00
38550;DHT22;24322;52.004;5.948;2022-07-23T10:13:14;32.10;48.80
38550;DHT22;24322;52.004;5.948;2022-07-23T10:15:59;31.80;49.00
38550;DHT22;24322;52.004;5.948;2022-07-23T10:18:25;31.50;48.90
38550;DHT22;24322;52.004;5.948;2022-07-23T10:20:51;30.90;49.30
38550;DHT22;24322;52.004;5.948;2022-07-23T10:26:05;31.10;49.10
38550;DHT22;24322;52.004;5.948;2022-07-23T10:29:05;31.60;49.20
38550;DHT22;24322;52.004;5.948;2022-07-23T10:37:29;31.60;48.70
38550;DHT22;24322;52.004;5.948;2022-07-23T10:40:19;31.40;47.30
38550;DHT22;24322;52.004;5.948;2022-07-23T10:42:49;31.00;47.50
38550;DHT22;24322;52.004;5.948;2022-07-23T10:45:30;31.20;49.40
38550;DHT22;24322;52.004;5.948;2022-07-23T10:48:11;31.70;47.80
38550;DHT22;24322;52.004;5.948;2022-07-23T10:50:37;32.00;47.40
38550;DHT22;24322;52.004;5.948;2022-07-23T10:58:03;32.40;47.20
38550;DHT22;24322;52.004;5.948;2022-07-23T11:00:31;32.40;47.50
38550;DHT22;24322;52.004;5.948;2022-07-23T11:03:01;32.40;48.50
38550;DHT22;24322;52.004;5.948;2022-07-23T11:16:17;30.20;48.00
38550;DHT22;24322;52.004;5.948;2022-07-23T11:26:47;29.00;51.60
38550;DHT22;24322;52.004;5.948;2022-07-23T11:34:45;28.10;53.00
38550;DHT22;24322;52.004;5.948;2022-07-23T11:37:38;28.20;54.20
38550;DHT22;24322;52.004;5.948;2022-07-23T11:40:14;28.00;52.50
38550;DHT22;24322;52.004;5.948;2022-07-23T11:42:51;27.70;53.50
38550;DHT22;24322;52.004;5.948;2022-07-23T11:45:17;27.60;55.80
38550;DHT22;24322;52.004;5.948;2022-07-23T11:47:43;27.80;55.60
38550;DHT22;24322;52.004;5.948;2022-07-23T11:50:09;27.90;51.80
38550;DHT22;24322;52.004;5.948;2022-07-23T11:52:34;27.90;52.90
38550;DHT22;24322;52.004;5.948;2022-07-23T11:55:03;27.70;54.30
38550;DHT22;24322;52.004;5.948;2022-07-23T11:57:34;27.60;53.50
38550;DHT22;24322;52.004;5.948;2022-07-23T12:00:28;27.40;54.00
38550;DHT22;24322;52.004;5.948;2022-07-23T12:02:59;27.30;55.90
38550;DHT22;24322;52.004;5.948;2022-07-23T12:05:29;27.50;54.90
38550;DHT22;24322;52.004;5.948;2022-07-23T12:07:56;27.90;53.50
38550;DHT22;24322;52.004;5.948;2022-07-23T12:10:24;27.90;54.00
38550;DHT22;24322;52.004;5.948;2022-07-23T12:12:58;28.20;54.40
38550;DHT22;24322;52.004;5.948;2022-07-23T12:15:32;28.30;52.20
38550;DHT22;24322;52.004;5.948;2022-07-23T12:18:01;28.20;53.10
38550;DHT22;24322;52.004;5.948;2022-07-23T12:20:30;28.30;54.30
38550;DHT22;24322;52.004;5.948;2022-07-23T12:23:01;28.70;53.60
38550;DHT22;24322;52.004;5.948;2022-07-23T12:25:33;28.60;51.30
38550;DHT22;24322;52.004;5.948;2022-07-23T12:28:05;28.90;51.90
38550;DHT22;24322;52.004;5.948;2022-07-23T12:33:10;28.60;53.00
38550;DHT22;24322;52.004;5.948;2022-07-23T12:35:37;28.30;53.80
38550;DHT22;24322;52.004;5.948;2022-07-23T12:38:17;28.30;53.40
38550;DHT22;24322;52.004;5.948;2022-07-23T12:40:49;28.40;53.40
38550;DHT22;24322;52.004;5.948;2022-07-23T12:45:55;29.00;51.50
38550;DHT22;24322;52.004;5.948;2022-07-23T12:48:26;29.20;52.30
38550;DHT22;24322;52.004;5.948;2022-07-23T12:51:04;29.20;51.70
38550;DHT22;24322;52.004;5.948;2022-07-23T12:53:41;28.90;51.80
38550;DHT22;24322;52.004;5.948;2022-07-23T12:58:50;28.90;52.10
38550;DHT22;24322;52.004;5.948;2022-07-23T13:04:15;28.60;54.00
38550;DHT22;24322;52.004;5.948;2022-07-23T13:06:52;28.80;53.70
38550;DHT22;24322;52.004;5.948;2022-07-23T13:09:24;29.10;53.10
38550;DHT22;24322;52.004;5.948;2022-07-23T13:11:51;29.00;52.70
38550;DHT22;24322;52.004;5.948;2022-07-23T13:14:18;29.00;52.80
38550;DHT22;24322;52.004;5.948;2022-07-23T13:16:45;29.40;51.60
38550;DHT22;24322;52.004;5.948;2022-07-23T13:19:11;29.70;51.70
38550;DHT22;24322;52.004;5.948;2022-07-23T13:21:37;29.80;52.40
38550;DHT22;24322;52.004;5.948;2022-07-23T13:24:03;30.00;52.70
38550;DHT22;24322;52.004;5.948;2022-07-23T13:26:29;30.30;52.30
38550;DHT22;24322;52.004;5.948;2022-07-23T13:28:55;30.40;51.90
38550;DHT22;24322;52.004;5.948;2022-07-23T13:31:21;30.50;51.60
38550;DHT22;24322;52.004;5.948;2022-07-23T13:33:46;30.50;50.20
38550;DHT22;24322;52.004;5.948;2022-07-23T13:36:12;30.40;49.60
38550;DHT22;24322;52.004;5.948;2022-07-23T13:38:38;30.40;49.00
38550;DHT22;24322;52.004;5.948;2022-07-23T13:41:04;30.20;48.50
38550;DHT22;24322;52.004;5.948;2022-07-23T13:43:31;30.10;48.50
38550;DHT22;24322;52.004;5.948;2022-07-23T13:45:57;29.80;49.70
38550;DHT22;24322;52.004;5.948;2022-07-23T13:48:22;29.50;49.80
38550;DHT22;24322;52.004;5.948;2022-07-23T13:50:49;29.30;52.00
38550;DHT22;24322;52.004;5.948;2022-07-23T13:53:20;28.80;52.40
38550;DHT22;24322;52.004;5.948;2022-07-23T13:55:47;28.50;52.80
38550;DHT22;24322;52.004;5.948;2022-07-23T13:58:14;28.10;52.90
38550;DHT22;24322;52.004;5.948;2022-07-23T14:00:42;27.90;52.80
38550;DHT22;24322;52.004;5.948;2022-07-23T14:03:08;27.50;53.70
38550;DHT22;24322;52.004;5.948;2022-07-23T14:05:34;27.40;54.80
38550;DHT22;24322;52.004;5.948;2022-07-23T14:08:00;27.40;54.50
38550;DHT22;24322;52.004;5.948;2022-07-23T14:10:26;27.50;54.70
38550;DHT22;24322;52.004;5.948;2022-07-23T14:12:52;27.40;54.90
38550;DHT22;24322;52.004;5.948;2022-07-23T14:15:23;27.20;54.80
38550;DHT22;24322;52.004;5.948;2022-07-23T14:17:49;27.20;55.30
38550;DHT22;24322;52.004;5.948;2022-07-23T14:20:15;27.20;54.20
38550;DHT22;24322;52.004;5.948;2022-07-23T14:22:41;27.00;55.40
38550;DHT22;24322;52.004;5.948;2022-07-23T14:25:08;27.00;54.70
38550;DHT22;24322;52.004;5.948;2022-07-23T14:27:34;27.00;54.30
38550;DHT22;24322;52.004;5.948;2022-07-23T14:30:01;27.10;55.30
38550;DHT22;24322;52.004;5.948;2022-07-23T14:32:26;27.00;55.20
38550;DHT22;24322;52.004;5.948;2022-07-23T14:34:52;27.00;55.50
38550;DHT22;24322;52.004;5.948;2022-07-23T14:37:18;27.00;54.50
38550;DHT22;24322;52.004;5.948;2022-07-23T14:39:45;27.00;55.40
38550;DHT22;24322;52.004;5.948;2022-07-23T14:42:11;27.10;54.60
38550;DHT22;24322;52.004;5.948;2022-07-23T14:44:38;27.10;55.30
38550;DHT22;24322;52.004;5.948;2022-07-23T14:47:04;27.20;54.40
38550;DHT22;24322;52.004;5.948;2022-07-23T14:49:31;27.20;55.10
38550;DHT22;24322;52.004;5.948;2022-07-23T14:51:57;27.30;55.20
38550;DHT22;24322;52.004;5.948;2022-07-23T14:54:24;27.20;54.50
38550;DHT22;24322;52.004;5.948;2022-07-23T14:56:52;27.00;55.40
38550;DHT22;24322;52.004;5.948;2022-07-23T14:59:18;26.90;55.40
38550;DHT22;24322;52.004;5.948;2022-07-23T15:01:43;26.90;56.00
38550;DHT22;24322;52.004;5.948;2022-07-23T15:04:09;26.90;55.50
38550;DHT22;24322;52.004;5.948;2022-07-23T15:06:35;26.80;56.70
38550;DHT22;24322;52.004;5.948;2022-07-23T15:09:01;26.80;56.20
38550;DHT22;24322;52.004;5.948;2022-07-23T15:11:27;26.80;56.80
38550;DHT22;24322;52.004;5.948;2022-07-23T15:13:55;26.80;57.20
38550;DHT22;24322;52.004;5.948;2022-07-23T15:16:21;26.70;57.20
38550;DHT22;24322;52.004;5.948;2022-07-23T15:18:46;26.80;56.70
38550;DHT22;24322;52.004;5.948;2022-07-23T15:21:12;26.80;57.00
38550;DHT22;24322;52.004;5.948;2022-07-23T15:23:38;26.90;56.90
38550;DHT22;24322;52.004;5.948;2022-07-23T15:26:05;26.90;57.10
38550;DHT22;24322;52.004;5.948;2022-07-23T15:28:32;26.90;56.80
38550;DHT22;24322;52.004;5.948;2022-07-23T15:30:57;26.90;56.80
38550;DHT22;24322;52.004;5.948;2022-07-23T15:33:23;26.90;56.50
38550;DHT22;24322;52.004;5.948;2022-07-23T15:35:49;26.70;56.10
38550;DHT22;24322;52.004;5.948;2022-07-23T15:38:15;26.70;57.10
38550;DHT22;24322;52.004;5.948;2022-07-23T15:40:40;26.70;56.90
38550;DHT22;24322;52.004;5.948;2022-07-23T15:43:06;26.70;57.30
38550;DHT22;24322;52.004;5.948;2022-07-23T15:45:32;26.60;57.10
38550;DHT22;24322;52.004;5.948;2022-07-23T15:47:58;26.40;56.00
38550;DHT22;24322;52.004;5.948;2022-07-23T15:50:24;26.30;57.30
38550;DHT22;24322;52.004;5.948;2022-07-23T15:52:49;26.40;58.40
38550;DHT22;24322;52.004;5.948;2022-07-23T15:55:15;26.40;58.00
38550;DHT22;24322;52.004;5.948;2022-07-23T15:57:41;26.30;56.90
38550;DHT22;24322;52.004;5.948;2022-07-23T16:00:07;26.30;57.10
38550;DHT22;24322;52.004;5.948;2022-07-23T16:02:34;26.40;57.30
38550;DHT22;24322;52.004;5.948;2022-07-23T16:05:00;26.60;57.50
38550;DHT22;24322;52.004;5.948;2022-07-23T16:07:26;26.60;57.00
38550;DHT22;24322;52.004;5.948;2022-07-23T16:09:51;26.50;57.00
38550;DHT22;24322;52.004;5.948;2022-07-23T16:12:17;26.50;57.10
38550;DHT22;24322;52.004;5.948;2022-07-23T16:14:43;26.60;57.30
38550;DHT22;24322;52.004;5.948;2022-07-23T16:17:08;26.70;57.90
38550;DHT22;24322;52.004;5.948;2022-07-23T16:19:34;26.70;57.80
38550;DHT22;24322;52.004;5.948;2022-07-23T16:22:00;26.60;57.30
38550;DHT22;24322;52.004;5.948;2022-07-23T16:24:26;26.60;58.00
38550;DHT22;24322;52.004;5.948;2022-07-23T16:26:52;26.50;58.10